sensor_id;sensor_type;location;lat;lon;timestamp;pressure;altitude;pressure_sealevel;temperature;humidity
18231;BME280;9240;49.966;21.994;2024-03-08T00:00:43;99585.03;;;0.73;75.31
18231;BME280;9240;49.966;21.994;2024-03-08T00:03:09;99583.34;;;0.72;75.37
18231;BME280;9240;49.966;21.994;2024-03-08T00:05:36;99589.34;;;0.73;75.40
18231;BME280;9240;49.966;21.994;2024-03-08T00:08:02;99593.66;;;0.71;75.45
18231;BME280;9240;49.966;21.994;2024-03-08T00:10:27;99589.47;;;0.68;75.39
18231;BME280;9240;49.966;21.994;2024-03-08T00:12:53;99574.97;;;0.66;75.68
18231;BME280;9240;49.966;21.994;2024-03-08T00:15:18;99579.28;;;0.65;75.42
18231;BME280;9240;49.966;21.994;2024-03-08T00:17:44;99580.19;;;0.63;75.72
18231;BME280;9240;49.966;21.994;2024-03-08T00:20:10;99579.44;;;0.59;75.70
18231;BME280;9240;49.966;21.994;2024-03-08T00:22:38;99578.72;;;0.54;75.83
18231;BME280;9240;49.966;21.994;2024-03-08T00:25:04;99577.06;;;0.51;75.96
18231;BME280;9240;49.966;21.994;2024-03-08T00:27:29;99577.13;;;0.50;76.13
18231;BME280;9240;49.966;21.994;2024-03-08T00:29:55;99571.22;;;0.46;76.21
18231;BME280;9240;49.966;21.994;2024-03-08T00:32:20;99573.84;;;0.44;76.35
18231;BME280;9240;49.966;21.994;2024-03-08T00:34:46;99573.03;;;0.42;76.51
18231;BME280;9240;49.966;21.994;2024-03-08T00:37:11;99565.41;;;0.39;76.48
18231;BME280;9240;49.966;21.994;2024-03-08T00:39:38;99570.59;;;0.38;76.64
18231;BME280;9240;49.966;21.994;2024-03-08T00:42:04;99568.06;;;0.36;76.61
18231;BME280;9240;49.966;21.994;2024-03-08T00:44:29;99566.41;;;0.34;76.67
18231;BME280;9240;49.966;21.994;2024-03-08T00:46:55;99572.34;;;0.36;76.92
18231;BME280;9240;49.966;21.994;2024-03-08T00:49:20;99570.63;;;0.36;76.89
18231;BME280;9240;49.966;21.994;2024-03-08T00:51:46;99566.34;;;0.37;76.83
18231;BME280;9240;49.966;21.994;2024-03-08T00:54:11;99563.81;;;0.35;77.12
18231;BME280;9240;49.966;21.994;2024-03-08T00:56:38;99558.78;;;0.32;76.81
18231;BME280;9240;49.966;21.994;2024-03-08T00:59:03;99569.03;;;0.32;76.99
18231;BME280;9240;49.966;21.994;2024-03-08T01:01:29;99572.41;;;0.34;76.90
18231;BME280;9240;49.966;21.994;2024-03-08T01:03:54;99565.53;;;0.35;77.12
18231;BME280;9240;49.966;21.994;2024-03-08T01:06:20;99569.78;;;0.36;77.10
18231;BME280;9240;49.966;21.994;2024-03-08T01:08:45;99571.53;;;0.34;76.95
18231;BME280;9240;49.966;21.994;2024-03-08T01:11:13;99560.56;;;0.28;77.41
18231;BME280;9240;49.966;21.994;2024-03-08T01:13:39;99554.75;;;0.22;77.38
18231;BME280;9240;49.966;21.994;2024-03-08T01:16:05;99558.28;;;0.18;77.50
18231;BME280;9240;49.966;21.994;2024-03-08T01:18:31;99560.94;;;0.14;77.51
18231;BME280;9240;49.966;21.994;2024-03-08T01:20:56;99556.72;;;0.12;77.35
18231;BME280;9240;49.966;21.994;2024-03-08T01:23:22;99556.91;;;0.04;77.69
18231;BME280;9240;49.966;21.994;2024-03-08T01:25:47;99551.84;;;0.01;77.84
18231;BME280;9240;49.966;21.994;2024-03-08T01:28:13;99551.13;;;-0.04;78.12
18231;BME280;9240;49.966;21.994;2024-03-08T01:30:39;99552.22;;;-0.13;77.98
18231;BME280;9240;49.966;21.994;2024-03-08T01:33:05;99544.72;;;-0.21;78.16
18231;BME280;9240;49.966;21.994;2024-03-08T01:35:30;99544.91;;;-0.28;78.25
18231;BME280;9240;49.966;21.994;2024-03-08T01:37:56;99544.31;;;-0.41;78.26
18231;BME280;9240;49.966;21.994;2024-03-08T01:40:21;99547.06;;;-0.51;78.47
18231;BME280;9240;49.966;21.994;2024-03-08T01:42:47;99548.91;;;-0.56;78.54
18231;BME280;9240;49.966;21.994;2024-03-08T01:45:12;99549.91;;;-0.63;79.09
18231;BME280;9240;49.966;21.994;2024-03-08T01:47:39;99546.66;;;-0.70;79.17
18231;BME280;9240;49.966;21.994;2024-03-08T01:50:05;99548.50;;;-0.77;79.53
18231;BME280;9240;49.966;21.994;2024-03-08T01:52:31;99535.00;;;-0.83;79.29
18231;BME280;9240;49.966;21.994;2024-03-08T01:54:58;99536.00;;;-0.90;79.32
18231;BME280;9240;49.966;21.994;2024-03-08T01:57:24;99538.72;;;-0.97;79.48
18231;BME280;9240;49.966;21.994;2024-03-08T01:59:50;99537.97;;;-1.02;79.47
18231;BME280;9240;49.966;21.994;2024-03-08T02:02:17;99528.69;;;-1.08;79.86
18231;BME280;9240;49.966;21.994;2024-03-08T02:04:44;99527.94;;;-1.13;80.04
18231;BME280;9240;49.966;21.994;2024-03-08T02:07:10;99531.41;;;-1.15;80.31
18231;BME280;9240;49.966;21.994;2024-03-08T02:09:35;99538.28;;;-1.19;80.50
18231;BME280;9240;49.966;21.994;2024-03-08T02:12:01;99532.38;;;-1.21;80.71
18231;BME280;9240;49.966;21.994;2024-03-08T02:14:27;99523.09;;;-1.25;80.59
18231;BME280;9240;49.966;21.994;2024-03-08T02:16:52;99519.72;;;-1.27;80.92
18231;BME280;9240;49.966;21.994;2024-03-08T02:19:18;99520.63;;;-1.30;80.84
18231;BME280;9240;49.966;21.994;2024-03-08T02:21:45;99520.59;;;-1.28;81.13
18231;BME280;9240;49.966;21.994;2024-03-08T02:24:11;99522.34;;;-1.30;81.03
18231;BME280;9240;49.966;21.994;2024-03-08T02:26:36;99521.47;;;-1.29;81.24
18231;BME280;9240;49.966;21.994;2024-03-08T02:29:02;99519.78;;;-1.30;81.27
18231;BME280;9240;49.966;21.994;2024-03-08T02:31:28;99523.19;;;-1.31;81.42
18231;BME280;9240;49.966;21.994;2024-03-08T02:33:53;99525.75;;;-1.30;81.53
18231;BME280;9240;49.966;21.994;2024-03-08T02:36:19;99529.06;;;-1.26;81.75
18231;BME280;9240;49.966;21.994;2024-03-08T02:38:46;99525.53;;;-1.20;81.59
18231;BME280;9240;49.966;21.994;2024-03-08T02:41:11;99521.25;;;-1.18;81.63
18231;BME280;9240;49.966;21.994;2024-03-08T02:43:36;99524.69;;;-1.19;81.69
18231;BME280;9240;49.966;21.994;2024-03-08T02:46:02;99519.66;;;-1.24;81.78
18231;BME280;9240;49.966;21.994;2024-03-08T02:48:28;99523.97;;;-1.26;81.72
18231;BME280;9240;49.966;21.994;2024-03-08T02:50:53;99523.19;;;-1.30;81.74
18231;BME280;9240;49.966;21.994;2024-03-08T02:53:19;99523.25;;;-1.33;81.85
18231;BME280;9240;49.966;21.994;2024-03-08T02:55:46;99518.22;;;-1.38;81.92
18231;BME280;9240;49.966;21.994;2024-03-08T02:58:11;99519.09;;;-1.40;82.04
18231;BME280;9240;49.966;21.994;2024-03-08T03:00:37;99527.63;;;-1.40;82.07
18231;BME280;9240;49.966;21.994;2024-03-08T03:03:03;99525.91;;;-1.38;82.07
18231;BME280;9240;49.966;21.994;2024-03-08T03:05:29;99527.63;;;-1.40;81.96
18231;BME280;9240;49.966;21.994;2024-03-08T03:07:55;99521.66;;;-1.40;82.45
18231;BME280;9240;49.966;21.994;2024-03-08T03:10:20;99531.84;;;-1.37;82.41
18231;BME280;9240;49.966;21.994;2024-03-08T03:12:48;99522.44;;;-1.35;82.19
18231;BME280;9240;49.966;21.994;2024-03-08T03:15:14;99523.25;;;-1.34;82.40
18231;BME280;9240;49.966;21.994;2024-03-08T03:17:40;99523.25;;;-1.34;82.29
18231;BME280;9240;49.966;21.994;2024-03-08T03:20:06;99530.88;;;-1.31;82.64
18231;BME280;9240;49.966;21.994;2024-03-08T03:22:32;99530.03;;;-1.32;82.54
18231;BME280;9240;49.966;21.994;2024-03-08T03:24:57;99542.88;;;-1.35;82.62
18231;BME280;9240;49.966;21.994;2024-03-08T03:27:23;99532.75;;;-1.40;82.87
18231;BME280;9240;49.966;21.994;2024-03-08T03:29:50;99534.44;;;-1.40;82.63
18231;BME280;9240;49.966;21.994;2024-03-08T03:32:15;99536.19;;;-1.42;82.81
18231;BME280;9240;49.966;21.994;2024-03-08T03:34:41;99531.94;;;-1.42;83.19
18231;BME280;9240;49.966;21.994;2024-03-08T03:37:07;99531.94;;;-1.42;83.19
18231;BME280;9240;49.966;21.994;2024-03-08T03:39:32;99531.78;;;-1.34;83.04
18231;BME280;9240;49.966;21.994;2024-03-08T03:41:58;99536.06;;;-1.36;83.03
18231;BME280;9240;49.966;21.994;2024-03-08T03:44:23;99531.78;;;-1.34;83.15
18231;BME280;9240;49.966;21.994;2024-03-08T03:46:50;99530.91;;;-1.33;83.19
18231;BME280;9240;49.966;21.994;2024-03-08T03:49:16;99530.91;;;-1.33;83.27
18231;BME280;9240;49.966;21.994;2024-03-08T03:51:41;99535.19;;;-1.35;83.30
18231;BME280;9240;49.966;21.994;2024-03-08T03:54:07;99531.84;;;-1.37;83.55
18231;BME280;9240;49.966;21.994;2024-03-08T03:56:32;99525.97;;;-1.42;83.58
18231;BME280;9240;49.966;21.994;2024-03-08T03:58:58;99522.53;;;-1.40;83.53
18231;BME280;9240;49.966;21.994;2024-03-08T04:01:23;99531.94;;;-1.42;83.57
18231;BME280;9240;49.966;21.994;2024-03-08T04:03:50;99528.59;;;-1.45;83.54
18231;BME280;9240;49.966;21.994;2024-03-08T04:06:16;99530.28;;;-1.46;84.09
18231;BME280;9240;49.966;21.994;2024-03-08T04:08:41;99528.50;;;-1.41;83.88
18231;BME280;9240;49.966;21.994;2024-03-08T04:11:07;99525.94;;;-1.41;83.72
18231;BME280;9240;49.966;21.994;2024-03-08T04:13:32;99517.47;;;-1.43;84.12
18231;BME280;9240;49.966;21.994;2024-03-08T04:15:58;99526.81;;;-1.42;83.72
18231;BME280;9240;49.966;21.994;2024-03-08T04:18:23;99516.59;;;-1.43;84.02
18231;BME280;9240;49.966;21.994;2024-03-08T04:20:50;99514.06;;;-1.43;84.01
18231;BME280;9240;49.966;21.994;2024-03-08T04:23:15;99514.06;;;-1.43;83.91
18231;BME280;9240;49.966;21.994;2024-03-08T04:25:41;99514.00;;;-1.40;83.95
18231;BME280;9240;49.966;21.994;2024-03-08T04:28:06;99511.44;;;-1.40;84.10
18231;BME280;9240;49.966;21.994;2024-03-08T04:30:32;99515.69;;;-1.38;84.09
18231;BME280;9240;49.966;21.994;2024-03-08T04:32:57;99505.47;;;-1.39;83.87
18231;BME280;9240;49.966;21.994;2024-03-08T04:35:23;99515.72;;;-1.41;84.31
18231;BME280;9240;49.966;21.994;2024-03-08T04:37:50;99517.44;;;-1.41;83.90
18231;BME280;9240;49.966;21.994;2024-03-08T04:40:15;99515.72;;;-1.41;84.24
18231;BME280;9240;49.966;21.994;2024-03-08T04:42:42;99511.50;;;-1.42;84.24
18231;BME280;9240;49.966;21.994;2024-03-08T04:45:08;99514.94;;;-1.44;84.24
18231;BME280;9240;49.966;21.994;2024-03-08T04:47:34;99516.69;;;-1.48;84.20
18231;BME280;9240;49.966;21.994;2024-03-08T04:50:00;99512.59;;;-1.55;84.35
18231;BME280;9240;49.966;21.994;2024-03-08T04:52:25;99522.81;;;-1.57;84.33
18231;BME280;9240;49.966;21.994;2024-03-08T04:54:52;99521.16;;;-1.58;84.18
18231;BME280;9240;49.966;21.994;2024-03-08T04:57:17;99521.16;;;-1.58;84.42
18231;BME280;9240;49.966;21.994;2024-03-08T04:59:43;99522.88;;;-1.60;84.52
18231;BME280;9240;49.966;21.994;2024-03-08T05:02:08;99525.44;;;-1.60;84.46
18231;BME280;9240;49.966;21.994;2024-03-08T05:04:34;99523.75;;;-1.61;84.38
18231;BME280;9240;49.966;21.994;2024-03-08T05:06:59;99526.31;;;-1.61;84.60
18231;BME280;9240;49.966;21.994;2024-03-08T05:09:25;99533.09;;;-1.58;84.81
18231;BME280;9240;49.966;21.994;2024-03-08T05:11:53;99527.97;;;-1.58;84.70
18231;BME280;9240;49.966;21.994;2024-03-08T05:14:18;99527.06;;;-1.56;84.88
18231;BME280;9240;49.966;21.994;2024-03-08T05:16:44;99530.38;;;-1.50;84.93
18231;BME280;9240;49.966;21.994;2024-03-08T05:19:09;99526.03;;;-1.45;84.87
18231;BME280;9240;49.966;21.994;2024-03-08T05:21:35;99528.56;;;-1.44;85.23
18231;BME280;9240;49.966;21.994;2024-03-08T05:24:00;99530.25;;;-1.43;85.17
18231;BME280;9240;49.966;21.994;2024-03-08T05:26:26;99538.72;;;-1.41;85.00
18231;BME280;9240;49.966;21.994;2024-03-08T05:28:53;99545.44;;;-1.35;85.09
18231;BME280;9240;49.966;21.994;2024-03-08T05:31:19;99541.16;;;-1.34;84.94
18231;BME280;9240;49.966;21.994;2024-03-08T05:33:45;99530.00;;;-1.30;84.75
18231;BME280;9240;49.966;21.994;2024-03-08T05:36:10;99538.53;;;-1.30;85.03
18231;BME280;9240;49.966;21.994;2024-03-08T05:38:36;99540.25;;;-1.32;85.10
18231;BME280;9240;49.966;21.994;2024-03-08T05:41:01;99548.69;;;-1.28;85.22
18231;BME280;9240;49.966;21.994;2024-03-08T05:43:27;99541.84;;;-1.26;85.30
18231;BME280;9240;49.966;21.994;2024-03-08T05:45:54;99546.91;;;-1.23;85.23
18231;BME280;9240;49.966;21.994;2024-03-08T05:48:19;99546.91;;;-1.23;85.26
18231;BME280;9240;49.966;21.994;2024-03-08T05:50:45;99547.69;;;-1.19;85.14
18231;BME280;9240;49.966;21.994;2024-03-08T05:53:11;99551.88;;;-1.17;85.23
18231;BME280;9240;49.966;21.994;2024-03-08T05:55:36;99545.81;;;-1.11;85.13
18231;BME280;9240;49.966;21.994;2024-03-08T05:58:02;99555.91;;;-1.05;85.20
18231;BME280;9240;49.966;21.994;2024-03-08T06:00:27;99554.16;;;-1.03;84.97
18231;BME280;9240;49.966;21.994;2024-03-08T06:02:54;99553.19;;;-0.96;84.91
18231;BME280;9240;49.966;21.994;2024-03-08T06:05:20;99565.88;;;-0.93;84.60
18231;BME280;9240;49.966;21.994;2024-03-08T06:07:45;99553.13;;;-0.94;84.56
18231;BME280;9240;49.966;21.994;2024-03-08T06:10:11;99557.34;;;-0.92;84.97
18231;BME280;9240;49.966;21.994;2024-03-08T06:12:37;99547.06;;;-0.88;84.67
18231;BME280;9240;49.966;21.994;2024-03-08T06:15:03;99551.06;;;-0.77;84.70
18231;BME280;9240;49.966;21.994;2024-03-08T06:17:29;99557.00;;;-0.74;84.47
18231;BME280;9240;49.966;21.994;2024-03-08T06:19:56;99549.25;;;-0.71;84.35
18231;BME280;9240;49.966;21.994;2024-03-08T06:22:21;99558.53;;;-0.67;84.32
18231;BME280;9240;49.966;21.994;2024-03-08T06:24:47;99560.13;;;-0.62;84.42
18231;BME280;9240;49.966;21.994;2024-03-08T06:27:12;99564.22;;;-0.54;84.33
18231;BME280;9240;49.966;21.994;2024-03-08T06:29:38;99565.69;;;-0.42;84.17
18231;BME280;9240;49.966;21.994;2024-03-08T06:32:04;99558.59;;;-0.31;83.81
18231;BME280;9240;49.966;21.994;2024-03-08T06:34:32;99558.31;;;-0.19;83.61
18231;BME280;9240;49.966;21.994;2024-03-08T06:36:59;99555.53;;;-0.09;83.50
18231;BME280;9240;49.966;21.994;2024-03-08T06:39:26;99555.38;;;-0.03;83.16
18231;BME280;9240;49.966;21.994;2024-03-08T06:41:51;99554.19;;;0.10;83.25
18231;BME280;9240;49.966;21.994;2024-03-08T06:44:19;99555.56;;;0.24;82.92
18231;BME280;9240;49.966;21.994;2024-03-08T06:46:45;99550.13;;;0.36;82.71
18231;BME280;9240;49.966;21.994;2024-03-08T06:49:11;99551.50;;;0.50;82.42
18231;BME280;9240;49.966;21.994;2024-03-08T06:51:38;99545.38;;;0.54;82.18
18231;BME280;9240;49.966;21.994;2024-03-08T06:54:05;99555.34;;;0.65;81.93
18231;BME280;9240;49.966;21.994;2024-03-08T06:56:31;99550.88;;;0.73;81.62
18231;BME280;9240;49.966;21.994;2024-03-08T06:58:58;99552.34;;;0.82;81.87
18231;BME280;9240;49.966;21.994;2024-03-08T07:01:25;99556.41;;;0.89;81.68
18231;BME280;9240;49.966;21.994;2024-03-08T07:03:51;99559.75;;;0.91;81.22
18231;BME280;9240;49.966;21.994;2024-03-08T07:06:16;99554.63;;;0.91;80.92
18231;BME280;9240;49.966;21.994;2024-03-08T07:08:42;99551.09;;;0.95;80.90
18231;BME280;9240;49.966;21.994;2024-03-08T07:11:11;99548.19;;;1.08;80.62
18231;BME280;9240;49.966;21.994;2024-03-08T07:13:38;99547.06;;;1.16;80.46
18231;BME280;9240;49.966;21.994;2024-03-08T07:16:06;99544.25;;;1.26;80.33
18231;BME280;9240;49.966;21.994;2024-03-08T07:18:33;99547.47;;;1.32;79.96
18231;BME280;9240;49.966;21.994;2024-03-08T07:21:01;99546.50;;;1.36;79.96
18231;BME280;9240;49.966;21.994;2024-03-08T07:23:28;99548.84;;;1.44;79.68
18231;BME280;9240;49.966;21.994;2024-03-08T07:25:53;99546.28;;;1.44;79.18
18231;BME280;9240;49.966;21.994;2024-03-08T07:28:21;99542.91;;;1.42;79.28
18231;BME280;9240;49.966;21.994;2024-03-08T07:30:46;99543.47;;;1.52;79.34
18231;BME280;9240;49.966;21.994;2024-03-08T07:33:16;99541.56;;;1.57;78.57
18231;BME280;9240;49.966;21.994;2024-03-08T07:38:53;99542.97;;;1.67;78.04
18231;BME280;9240;49.966;21.994;2024-03-08T07:41:35;99544.22;;;1.82;78.01
18231;BME280;9240;49.966;21.994;2024-03-08T07:44:21;99540.47;;;1.93;77.20
18231;BME280;9240;49.966;21.994;2024-03-08T09:20:31;99518.88;;;4.48;62.48
18231;BME280;9240;49.966;21.994;2024-03-08T09:22:57;99511.16;;;4.48;62.81
18231;BME280;9240;49.966;21.994;2024-03-08T10:27:33;99509.03;;;5.15;58.41
18231;BME280;9240;49.966;21.994;2024-03-08T10:29:58;99504.63;;;5.17;58.46
18231;BME280;9240;49.966;21.994;2024-03-08T10:32:24;99506.59;;;5.31;58.43
18231;BME280;9240;49.966;21.994;2024-03-08T10:34:58;99504.47;;;5.39;58.10
18231;BME280;9240;49.966;21.994;2024-03-08T10:37:23;99507.44;;;5.49;57.90
18231;BME280;9240;49.966;21.994;2024-03-08T10:39:56;99504.34;;;5.60;57.70
18231;BME280;9240;49.966;21.994;2024-03-08T10:42:28;99508.00;;;5.73;57.31
18231;BME280;9240;49.966;21.994;2024-03-08T10:45:00;99499.19;;;5.77;57.30
18231;BME280;9240;49.966;21.994;2024-03-08T10:47:33;99496.47;;;5.81;57.10
18231;BME280;9240;49.966;21.994;2024-03-08T10:50:10;99494.41;;;5.87;57.05
18231;BME280;9240;49.966;21.994;2024-03-08T10:52:36;99488.44;;;5.87;56.83
18231;BME280;9240;49.966;21.994;2024-03-08T10:55:02;99489.78;;;5.94;57.15
18231;BME280;9240;49.966;21.994;2024-03-08T10:57:27;99486.22;;;5.97;56.64
18231;BME280;9240;49.966;21.994;2024-03-08T10:59:56;99483.63;;;5.97;56.78
18231;BME280;9240;49.966;21.994;2024-03-08T11:02:22;99485.78;;;6.06;56.66
18231;BME280;9240;49.966;21.994;2024-03-08T11:04:50;99478.63;;;5.93;56.65
18231;BME280;9240;49.966;21.994;2024-03-08T11:07:16;99473.00;;;6.03;56.47
18231;BME280;9240;49.966;21.994;2024-03-08T11:09:41;99467.44;;;6.11;56.31
18231;BME280;9240;49.966;21.994;2024-03-08T11:12:24;99464.47;;;6.01;56.16
18231;BME280;9240;49.966;21.994;2024-03-08T11:14:51;99466.50;;;5.59;56.20
18231;BME280;9240;49.966;21.994;2024-03-08T11:17:21;99468.75;;;5.30;56.84
18231;BME280;9240;49.966;21.994;2024-03-08T11:19:47;99467.56;;;5.37;56.99
18231;BME280;9240;49.966;21.994;2024-03-08T11:22:22;99466.09;;;5.31;56.89
18231;BME280;9240;49.966;21.994;2024-03-08T11:24:49;99462.16;;;5.42;56.89
18231;BME280;9240;49.966;21.994;2024-03-08T11:27:15;99465.81;;;5.55;56.71
18231;BME280;9240;49.966;21.994;2024-03-08T11:29:41;99464.84;;;5.75;56.26
18231;BME280;9240;49.966;21.994;2024-03-08T11:32:11;99464.69;;;5.96;56.52
18231;BME280;9240;49.966;21.994;2024-03-08T11:34:40;99452.69;;;6.13;56.15
18231;BME280;9240;49.966;21.994;2024-03-08T11:37:05;99454.06;;;6.20;55.96
18231;BME280;9240;49.966;21.994;2024-03-08T11:39:31;99448.78;;;6.21;55.36
18231;BME280;9240;49.966;21.994;2024-03-08T11:41:57;99448.56;;;6.08;55.68
18231;BME280;9240;49.966;21.994;2024-03-08T11:44:26;99443.19;;;6.13;55.85
18231;BME280;9240;49.966;21.994;2024-03-08T11:46:52;99447.34;;;5.98;56.05
18231;BME280;9240;49.966;21.994;2024-03-08T11:49:17;99437.19;;;5.77;55.97
18231;BME280;9240;49.966;21.994;2024-03-08T11:51:44;99437.47;;;5.36;56.45
18231;BME280;9240;49.966;21.994;2024-03-08T11:54:11;99438.09;;;5.05;56.83
18231;BME280;9240;49.966;21.994;2024-03-08T11:56:37;99433.84;;;5.04;56.97
18231;BME280;9240;49.966;21.994;2024-03-08T11:59:03;99434.25;;;5.13;56.95
18231;BME280;9240;49.966;21.994;2024-03-08T12:01:28;99425.38;;;5.19;56.81
18231;BME280;9240;49.966;21.994;2024-03-08T12:03:54;99424.84;;;5.30;56.74
18231;BME280;9240;49.966;21.994;2024-03-08T12:06:20;99421.91;;;5.38;56.85
18231;BME280;9240;49.966;21.994;2024-03-08T12:08:47;99419.22;;;5.39;56.39
18231;BME280;9240;49.966;21.994;2024-03-08T12:11:13;99417.56;;;5.38;56.55
18231;BME280;9240;49.966;21.994;2024-03-08T12:13:38;99402.81;;;5.40;56.37
18231;BME280;9240;49.966;21.994;2024-03-08T12:16:04;99406.88;;;5.46;56.76
18231;BME280;9240;49.966;21.994;2024-03-08T12:18:33;99401.16;;;5.57;56.65
18231;BME280;9240;49.966;21.994;2024-03-08T12:21:05;99399.28;;;5.60;56.53
18231;BME280;9240;49.966;21.994;2024-03-08T12:23:31;99402.28;;;5.69;56.32
18231;BME280;9240;49.966;21.994;2024-03-08T12:26:09;99401.47;;;5.68;56.27
18231;BME280;9240;49.966;21.994;2024-03-08T12:28:34;99402.16;;;5.54;56.35
18231;BME280;9240;49.966;21.994;2024-03-08T12:31:00;99400.84;;;5.45;56.56
18231;BME280;9240;49.966;21.994;2024-03-08T12:33:25;99391.44;;;5.44;56.67
18231;BME280;9240;49.966;21.994;2024-03-08T12:35:51;99393.19;;;5.61;56.94
18231;BME280;9240;49.966;21.994;2024-03-08T12:38:17;99387.69;;;5.68;56.58
18231;BME280;9240;49.966;21.994;2024-03-08T12:40:43;99382.53;;;5.68;56.29
18231;BME280;9240;49.966;21.994;2024-03-08T12:43:09;99381.63;;;5.69;56.26
18231;BME280;9240;49.966;21.994;2024-03-08T12:45:35;99385.34;;;5.81;56.47
18231;BME280;9240;49.966;21.994;2024-03-08T12:48:00;99378.25;;;5.84;56.25
18231;BME280;9240;49.966;21.994;2024-03-08T12:50:26;99376.94;;;5.93;56.26
18231;BME280;9240;49.966;21.994;2024-03-08T12:52:51;99373.59;;;6.08;56.15
18231;BME280;9240;49.966;21.994;2024-03-08T12:55:17;99370.38;;;6.21;56.09
18231;BME280;9240;49.966;21.994;2024-03-08T12:57:42;99367.81;;;6.21;55.98
18231;BME280;9240;49.966;21.994;2024-03-08T13:00:10;99377.94;;;6.08;55.59
18231;BME280;9240;49.966;21.994;2024-03-08T13:02:36;99372.03;;;6.06;55.79
18231;BME280;9240;49.966;21.994;2024-03-08T13:05:01;99370.88;;;5.94;55.75
18231;BME280;9240;49.966;21.994;2024-03-08T13:07:27;99364.41;;;5.85;55.39
18231;BME280;9240;49.966;21.994;2024-03-08T13:09:53;99374.25;;;5.78;56.11
18231;BME280;9240;49.966;21.994;2024-03-08T13:12:19;99367.41;;;5.77;55.88
18231;BME280;9240;49.966;21.994;2024-03-08T13:14:44;99366.72;;;5.74;55.76
18231;BME280;9240;49.966;21.994;2024-03-08T13:17:11;99368.41;;;5.75;55.85
18231;BME280;9240;49.966;21.994;2024-03-08T13:19:36;99367.88;;;5.68;55.97
18231;BME280;9240;49.966;21.994;2024-03-08T13:22:02;99360.28;;;5.65;55.86
18231;BME280;9240;49.966;21.994;2024-03-08T13:24:27;99358.69;;;5.62;55.96
18231;BME280;9240;49.966;21.994;2024-03-08T13:26:53;99359.38;;;5.66;56.08
18231;BME280;9240;49.966;21.994;2024-03-08T13:29:18;99348.69;;;5.72;56.20
18231;BME280;9240;49.966;21.994;2024-03-08T13:31:44;99348.56;;;5.75;56.17
18231;BME280;9240;49.966;21.994;2024-03-08T13:34:11;99347.06;;;5.71;56.02
18231;BME280;9240;49.966;21.994;2024-03-08T13:36:36;99349.31;;;5.77;56.21
18231;BME280;9240;49.966;21.994;2024-03-08T13:39:02;99342.22;;;5.81;55.92
18231;BME280;9240;49.966;21.994;2024-03-08T13:41:27;99339.97;;;5.75;56.08
18231;BME280;9240;49.966;21.994;2024-03-08T13:43:53;99344.59;;;5.86;56.05
18231;BME280;9240;49.966;21.994;2024-03-08T13:46:18;99336.16;;;5.82;56.01
18231;BME280;9240;49.966;21.994;2024-03-08T13:48:44;99335.06;;;5.86;55.91
18231;BME280;9240;49.966;21.994;2024-03-08T13:51:11;99332.19;;;5.92;55.98
18231;BME280;9240;49.966;21.994;2024-03-08T13:53:36;99333.69;;;5.97;56.09
18231;BME280;9240;49.966;21.994;2024-03-08T13:56:02;99333.34;;;6.04;56.25
18231;BME280;9240;49.966;21.994;2024-03-08T13:58:27;99332.41;;;6.05;55.96
18231;BME280;9240;49.966;21.994;2024-03-08T14:00:53;99328.06;;;6.06;56.02
18231;BME280;9240;49.966;21.994;2024-03-08T14:03:19;99324.47;;;6.08;55.73
18231;BME280;9240;49.966;21.994;2024-03-08T14:05:45;99334.91;;;6.07;55.79
18231;BME280;9240;49.966;21.994;2024-03-08T14:08:12;99330.75;;;6.04;55.74
18231;BME280;9240;49.966;21.994;2024-03-08T14:10:38;99324.72;;;6.04;55.75
18231;BME280;9240;49.966;21.994;2024-03-08T14:13:06;99325.38;;;6.07;55.76
18231;BME280;9240;49.966;21.994;2024-03-08T14:15:32;99325.09;;;5.96;55.69
18231;BME280;9240;49.966;21.994;2024-03-08T14:17:58;99316.56;;;5.78;55.77
18231;BME280;9240;49.966;21.994;2024-03-08T14:20:24;99316.88;;;5.72;55.65
18231;BME280;9240;49.966;21.994;2024-03-08T14:22:50;99314.44;;;5.69;55.65
18231;BME280;9240;49.966;21.994;2024-03-08T14:25:17;99317.94;;;5.68;55.75
18231;BME280;9240;49.966;21.994;2024-03-08T14:27:42;99309.66;;;5.61;55.71
18231;BME280;9240;49.966;21.994;2024-03-08T14:30:09;99307.94;;;5.61;55.95
18231;BME280;9240;49.966;21.994;2024-03-08T14:32:35;99308.50;;;5.67;55.84
18231;BME280;9240;49.966;21.994;2024-03-08T14:35:00;99308.44;;;5.68;55.80
18231;BME280;9240;49.966;21.994;2024-03-08T14:37:25;99300.84;;;5.65;55.97
18231;BME280;9240;49.966;21.994;2024-03-08T14:39:52;99295.59;;;5.67;55.84
18231;BME280;9240;49.966;21.994;2024-03-08T14:42:19;99300.84;;;5.65;55.77
18231;BME280;9240;49.966;21.994;2024-03-08T14:44:44;99294.50;;;5.55;55.72
18231;BME280;9240;49.966;21.994;2024-03-08T14:47:10;99289.69;;;5.47;55.84
18231;BME280;9240;49.966;21.994;2024-03-08T14:49:36;99288.78;;;5.48;55.99
18231;BME280;9240;49.966;21.994;2024-03-08T14:52:01;99289.56;;;5.50;56.07
18231;BME280;9240;49.966;21.994;2024-03-08T14:54:27;99285.16;;;5.52;56.11
18231;BME280;9240;49.966;21.994;2024-03-08T14:56:52;99290.16;;;5.55;56.01
18231;BME280;9240;49.966;21.994;2024-03-08T14:59:19;99283.22;;;5.56;56.04
18231;BME280;9240;49.966;21.994;2024-03-08T15:01:45;99283.22;;;5.56;55.74
18231;BME280;9240;49.966;21.994;2024-03-08T15:04:10;99278.47;;;5.48;55.88
18231;BME280;9240;49.966;21.994;2024-03-08T15:06:36;99275.34;;;5.41;56.08
18231;BME280;9240;49.966;21.994;2024-03-08T15:09:02;99281.44;;;5.40;56.33
18231;BME280;9240;49.966;21.994;2024-03-08T15:11:28;99282.44;;;5.38;56.20
18231;BME280;9240;49.966;21.994;2024-03-08T15:13:53;99278.28;;;5.35;56.33
18231;BME280;9240;49.966;21.994;2024-03-08T15:16:20;99271.88;;;5.25;56.65
18231;BME280;9240;49.966;21.994;2024-03-08T15:18:46;99270.38;;;5.21;56.70
18231;BME280;9240;49.966;21.994;2024-03-08T15:21:12;99264.47;;;5.19;56.83
18231;BME280;9240;49.966;21.994;2024-03-08T15:23:38;99266.28;;;5.16;56.90
18231;BME280;9240;49.966;21.994;2024-03-08T15:26:03;99276.63;;;5.16;57.14
18231;BME280;9240;49.966;21.994;2024-03-08T15:28:29;99271.50;;;5.15;57.21
18231;BME280;9240;49.966;21.994;2024-03-08T15:30:55;99272.66;;;5.09;57.62
18231;BME280;9240;49.966;21.994;2024-03-08T15:33:22;99272.28;;;4.99;57.30
18231;BME280;9240;49.966;21.994;2024-03-08T15:35:47;99275.09;;;4.95;57.53
18231;BME280;9240;49.966;21.994;2024-03-08T15:38:13;99267.59;;;4.90;57.78
18231;BME280;9240;49.966;21.994;2024-03-08T15:40:38;99270.44;;;4.84;57.57